createdAt,value
2018-10-11T00:05:28.048Z,55.1
2018-10-11T00:15:27.270Z,55
2018-10-11T00:25:26.497Z,54.9
2018-10-11T00:35:25.762Z,54.8
2018-10-11T00:45:24.991Z,54.8
2018-10-11T00:55:24.165Z,54.7
2018-10-11T01:05:23.388Z,54.6
2018-10-11T01:15:22.614Z,54.4
2018-10-11T01:25:21.846Z,54.3
2018-10-11T01:35:21.057Z,54.3
2018-10-11T01:45:20.277Z,54.3
2018-10-11T01:55:19.507Z,54.1
2018-10-11T02:05:18.730Z,54.1
2018-10-11T02:15:17.945Z,54
2018-10-11T02:25:17.173Z,53.9
2018-10-11T02:35:16.396Z,53.9
2018-10-11T02:45:15.619Z,52.8
2018-10-11T02:55:14.843Z,51.4
2018-10-11T03:05:14.060Z,46.1
2018-10-11T03:15:13.293Z,45.1
2018-10-11T03:25:12.511Z,44.8
2018-10-11T03:35:11.741Z,44.6
2018-10-11T03:45:10.957Z,44.5
2018-10-11T03:55:10.183Z,44.3
2018-10-11T04:05:09.400Z,43.7
2018-10-11T04:15:08.630Z,42.1
2018-10-11T04:25:07.850Z,40.4
2018-10-11T04:35:07.084Z,40.5
2018-10-11T04:45:06.305Z,40.8
2018-10-11T04:55:05.531Z,40.9
2018-10-11T05:05:04.754Z,40.9
2018-10-11T05:15:03.979Z,41
2018-10-11T05:25:03.196Z,41.1
2018-10-11T05:35:02.429Z,41.1
2018-10-11T05:45:01.698Z,41.1
2018-10-11T05:55:00.868Z,40.8
2018-10-11T06:05:00.098Z,40.9
2018-10-11T06:14:59.319Z,40.6
2018-10-11T06:24:58.684Z,40.5
2018-10-11T06:34:57.771Z,41.1
2018-10-11T06:44:56.994Z,41.7
2018-10-11T06:54:56.214Z,42.5
2018-10-11T07:04:55.445Z,43.4
2018-10-11T07:14:54.665Z,44.5
2018-10-11T07:24:53.891Z,45.6
2018-10-11T07:34:53.208Z,46.6
2018-10-11T07:44:52.344Z,47.8
2018-10-11T07:54:51.625Z,48.8
2018-10-11T08:04:50.799Z,49.7
2018-10-11T08:14:50.026Z,50.6
2018-10-11T08:24:49.338Z,51.5
2018-10-11T08:34:48.480Z,52.4
2018-10-11T08:44:47.701Z,53.3
2018-10-11T08:54:46.935Z,54
2018-10-11T09:04:46.149Z,54.4
2018-10-11T09:14:45.382Z,54.8
2018-10-11T09:24:44.606Z,55.1
2018-10-11T09:34:43.829Z,55.5
2018-10-11T09:44:43.048Z,56
2018-10-11T09:54:42.337Z,56.6
2018-10-11T10:04:41.508Z,57.2
2018-10-11T10:14:40.721Z,57.7
2018-10-11T10:24:39.949Z,58.4
2018-10-11T10:34:39.179Z,59.1
2018-10-11T10:44:38.399Z,59.8
2018-10-11T10:54:37.624Z,60.5
2018-10-11T11:04:36.855Z,61.1
2018-10-11T11:14:36.072Z,61.6
2018-10-11T11:24:35.298Z,61.7
2018-10-11T11:34:34.516Z,60.4
2018-10-11T11:44:33.744Z,60
2018-10-11T11:54:32.972Z,60
2018-10-11T12:04:32.242Z,60.3
2018-10-11T12:14:31.416Z,60.8
2018-10-11T12:24:30.686Z,61.1
2018-10-11T12:34:29.859Z,61.4
2018-10-11T12:44:29.089Z,61.6
2018-10-11T12:54:28.306Z,61.7
2018-10-11T13:04:27.530Z,61.9
2018-10-11T13:14:26.759Z,62.1
2018-10-11T13:24:25.982Z,62.4
2018-10-11T13:34:25.219Z,62.7
2018-10-11T13:44:24.429Z,63.1
2018-10-11T13:54:23.652Z,63.4
2018-10-11T14:04:22.885Z,63.6
2018-10-11T14:14:22.099Z,63.9
2018-10-11T14:24:21.320Z,64.2
2018-10-11T14:34:20.545Z,64.3
2018-10-11T14:44:19.764Z,64.5
2018-10-11T14:54:18.992Z,64.5
2018-10-11T15:04:18.216Z,64.5
2018-10-11T15:14:17.437Z,62.8
2018-10-11T15:24:16.669Z,59.9
2018-10-11T15:34:15.890Z,58.9
2018-10-11T15:44:15.115Z,57.5
2018-10-11T15:54:14.343Z,56.8
2018-10-11T16:04:13.559Z,51.9
2018-10-11T16:14:12.788Z,48.2
2018-10-11T16:24:12.020Z,45.3
2018-10-11T16:34:11.241Z,45.4
2018-10-11T16:44:10.468Z,45
2018-10-11T16:54:09.697Z,44.3
2018-10-11T17:04:09.017Z,44
2018-10-11T17:14:08.144Z,43.2
2018-10-11T17:24:07.425Z,42.5
2018-10-11T17:34:06.607Z,39.5
2018-10-11T17:44:05.823Z,36.2
2018-10-11T17:54:05.060Z,35.6
2018-10-11T18:04:04.286Z,36
2018-10-11T18:14:03.510Z,34.9
2018-10-11T18:24:02.735Z,34.9
2018-10-11T18:34:01.960Z,31.8
2018-10-11T18:44:01.236Z,31.5
2018-10-11T18:54:00.411Z,31.5
2018-10-11T19:03:59.643Z,31.8
2018-10-11T19:13:58.869Z,32.1
2018-10-11T19:23:58.093Z,32.3
2018-10-11T19:33:57.368Z,32.4
2018-10-11T19:43:56.540Z,32.6
2018-10-11T19:53:55.764Z,32.8
2018-10-11T20:03:54.991Z,32.9
2018-10-11T20:13:54.218Z,33
2018-10-11T20:23:53.438Z,33.1
2018-10-11T20:33:52.661Z,33.3
2018-10-11T20:43:51.931Z,33.4
2018-10-11T20:53:51.114Z,33.5
2018-10-11T21:03:50.334Z,33.6
2018-10-11T21:13:49.564Z,33.7
2018-10-11T21:23:48.782Z,33.8
2018-10-11T21:33:48.011Z,33.9
2018-10-11T21:43:47.230Z,34
2018-10-11T21:53:46.454Z,34.1
2018-10-11T22:03:45.678Z,34.1
2018-10-11T22:13:44.906Z,34.2
2018-10-11T22:23:44.129Z,34.3
2018-10-11T22:33:43.354Z,34.4
2018-10-11T22:43:42.576Z,34.4
2018-10-11T22:53:41.799Z,34.5
2018-10-11T23:03:41.017Z,34.6
2018-10-11T23:13:40.247Z,34.6
2018-10-11T23:23:39.466Z,34.7
2018-10-11T23:33:38.688Z,34.8
2018-10-11T23:43:37.916Z,34.8
2018-10-11T23:53:37.139Z,34.8
